Aviation Digital Data Service (ADDS)

Output produced by METARs form (1635 UTC 02 July 2015)
found at http://aviationweather.gov/adds/metars/
 
KBDL 021506Z 0215/0318 VRB03KT P6SM SCT040 
     FM021800 25006KT P6SM SCT040 
     FM030300 00000KT P6SM SCT060